Weather reports worldwide

Advertisment
Hohenpeißenberg, Germany (10962): temperature & dewpoint: 13.01.2021 06:00:00 - 19.01.2021 06:00:00 (CET)Hohenpeißenberg, Germany (10962): temperature 5cm & temperature -5cm: 13.01.2021 06:00:00 - 19.01.2021 06:00:00 (CET)Hohenpeißenberg, Germany (10962): temperature -20cm & temperature -100cm: 13.01.2021 06:00:00 - 19.01.2021 06:00:00 (CET)Hohenpeißenberg, Germany (10962): wind speed & gusts: 13.01.2021 06:00:00 - 19.01.2021 06:00:00 (CET)Hohenpeißenberg, Germany (10962): wind direction: 13.01.2021 06:00:00 - 19.01.2021 06:00:00 (CET)Hohenpeißenberg, Germany (10962): visibility: 13.01.2021 06:00:00 - 19.01.2021 06:00:00 (CET)Hohenpeißenberg, Germany (10962): sunshine duration: 13.01.2021 06:00:00 - 19.01.2021 06:00:00 (CET)Hohenpeißenberg, Germany (10962): precipitation: 13.01.2021 06:00:00 - 19.01.2021 06:00:00 (CET)
Date & Time tt [°C] td [°C] tt 5cm [°C] tt -5cm [°C] tt -20cm [°C] tt -100cm [°C] ff [km/h] ff [kn] fx [km/h] fx [kn] dd vv [km] sd [min] rr [mm]
19.01.2021 06:00:00 - - - - - - - - - - - - - -
19.01.2021 05:00:00 -5,3 -6,6 -6,9 0,5 1,0 4,0 13 7 25 14 SSW 64 0 0,0
19.01.2021 04:00:00 -5,0 -6,4 -6,5 0,5 1,0 4,0 17 9 27 15 SW 65 0 0,0
19.01.2021 03:00:00 -5,1 -6,0 -6,5 0,5 1,0 4,0 16 9 26 14 SW 52 0 0,0
19.01.2021 02:00:00 -4,7 -5,6 -6,1 0,5 1,0 4,0 18 10 29 15 WSW 41 0 0,0
19.01.2021 01:00:00 -4,4 -5,1 -5,1 0,5 1,0 4,0 20 11 32 17 WSW 27 0 0,0
19.01.2021 00:00:00 -4,1 -4,8 -4,5 0,5 1,0 4,0 21 11 34 18 WSW 26 0 0,0
18.01.2021 23:00:00 -4,1 -4,9 -4,2 0,5 1,0 4,0 25 13 39 21 WSW 32 0 0,0
18.01.2021 22:00:00 -4,1 -5,2 -4,1 0,5 1,0 4,1 26 14 45 25 W 51 0 0,0
18.01.2021 21:00:00 -4,4 -5,5 -5,3 0,5 1,0 4,1 27 14 42 23 WSW 54 0 0,0
18.01.2021 20:00:00 -4,2 -5,3 -4,9 0,5 1,0 4,1 21 12 42 23 W 50 0 0,0
18.01.2021 19:00:00 -3,9 -4,9 -4,3 0,5 1,0 4,1 23 13 41 22 WSW 50 0 0,0
18.01.2021 18:00:00 -3,7 -4,4 -4,6 0,5 1,0 4,1 26 14 42 23 WSW 34 0 0,0
18.01.2021 17:00:00 -3,1 -3,7 -3,3 0,5 1,0 4,1 24 13 42 23 SW 26 0 0,0
18.01.2021 16:00:00 -3,0 -3,7 -3,0 0,5 1,0 4,1 24 13 49 26 WSW 30 0 0,0
18.01.2021 15:00:00 -2,8 -3,6 -2,6 0,5 1,0 4,1 28 15 47 26 WSW 21 0 0,0
18.01.2021 14:00:00 -2,5 -3,3 -2,1 0,5 1,0 4,1 23 12 40 21 WSW 29 0 0,0
18.01.2021 13:00:00 -2,6 -3,5 -2,2 0,5 1,0 4,1 24 13 44 24 W 22 0 0,0
18.01.2021 12:00:00 -2,5 -3,3 -2,2 0,5 1,0 4,1 23 13 48 26 W 16 1 0,0
18.01.2021 11:00:00 -2,6 -3,2 -2,3 0,5 1,0 4,1 18 10 39 21 W 9 0 0,0
18.01.2021 10:00:00 -2,6 -2,9 -2,4 0,5 1,0 4,1 20 11 36 20 W 6 0 0,1
18.01.2021 09:00:00 -2,5 -2,8 -1,8 0,5 1,0 4,1 16 9 35 19 W 0,4 0 0,0
18.01.2021 08:00:00 -2,4 -2,6 -1,8 0,5 1,0 4,1 21 11 35 19 WSW 0,3 0 0,0
18.01.2021 07:00:00 -2,5 -2,7 -1,9 0,5 1,0 4,1 21 11 40 22 WSW 0,3 0 0,1
18.01.2021 06:00:00 -2,6 -2,9 -1,9 0,5 1,0 4,1 24 13 40 21 WSW 1,7 0 0,0
18.01.2021 05:00:00 -2,6 -3,0 -1,9 0,6 1,0 4,1 24 13 44 24 WSW 10 0 0,0
18.01.2021 04:00:00 -2,4 -2,6 -1,9 0,6 1,0 4,1 21 11 39 21 W 0,6 0 0,0
18.01.2021 03:00:00 -2,3 -2,5 -1,9 0,6 1,0 4,1 19 11 38 20 WSW 0,1 0 0,3
18.01.2021 02:00:00 -2,2 -2,5 -2,0 0,6 1,0 4,1 18 10 34 19 WSW 0,1 0 1,1
18.01.2021 01:00:00 -2,2 -2,4 -2,0 0,6 1,0 4,1 17 9 36 20 W 0,2 0 0,6
18.01.2021 00:00:00 -2,2 -2,4 -2,1 0,6 1,0 4,1 19 10 42 23 W 0,3 0 0,0
17.01.2021 23:00:00 -2,2 -2,4 -2,2 0,6 1,0 4,1 18 10 36 19 W 0,2 0 0,6
17.01.2021 22:00:00 -2,2 -2,4 -2,3 0,6 1,0 4,1 16 8 37 20 W 0,1 0 0,0
17.01.2021 21:00:00 -2,2 -2,4 -2,4 0,6 1,0 4,1 14 8 31 17 W 0,1 0 0,2
17.01.2021 20:00:00 -2,5 -2,6 -2,4 0,6 1,0 4,1 14 7 27 14 W 0,2 0 0,3
17.01.2021 19:00:00 -2,8 -3,0 -2,5 0,6 1,0 4,1 14 8 30 16 WNW 0,1 0 0,7
17.01.2021 18:00:00 -3,1 -3,3 -2,4 0,6 1,0 4,1 11 6 24 13 WNW 0,3 0 0,9
17.01.2021 17:00:00 -3,4 -3,7 -2,2 0,6 1,0 4,1 10 6 20 11 NNW 0,4 0 0,5
17.01.2021 16:00:00 -3,4 -3,7 -1,9 0,6 1,0 4,1 11 6 27 14 NNW 0,8 0 1,0
17.01.2021 15:00:00 -3,4 -3,9 -1,5 0,6 1,1 4,1 15 8 34 19 NW 0,9 0 0,5
17.01.2021 14:00:00 -3,1 -3,5 -1,5 0,6 1,1 4,1 9 5 22 12 W 0,2 0 0,7
17.01.2021 13:00:00 -3,3 -3,8 -1,6 0,6 1,1 4,1 10 5 22 12 WNW 0,3 0 0,6
17.01.2021 12:00:00 -3,4 -3,9 -1,8 0,6 1,1 4,1 11 6 23 12 W 0,7 0 0,5
17.01.2021 11:00:00 -3,5 -4,0 -2,3 0,6 1,1 4,1 12 6 26 14 W 1,2 0 1,1
17.01.2021 10:00:00 -3,9 -4,3 -3,3 0,6 1,1 4,1 14 7 28 15 W 0,3 0 1,2
17.01.2021 09:00:00 -4,1 -4,4 -4,0 0,6 1,1 4,1 15 8 32 18 W 0,5 0 1,4
17.01.2021 08:00:00 -4,3 -4,7 -4,3 0,6 1,1 4,1 18 10 39 21 W 0,3 0 1,6
17.01.2021 07:00:00 -4,7 -5,2 -4,7 0,6 1,1 4,1 25 13 41 22 WSW 0,6 0 0,6
17.01.2021 06:00:00 -5,0 -5,6 -4,9 0,6 1,1 4,1 29 16 42 23 WSW 0,6 0 0,6
17.01.2021 05:00:00 -5,6 -6,1 -5,5 0,6 1,1 4,1 13 7 20 11 S 3,6 0 0,7
17.01.2021 04:00:00 -6,0 -6,6 -5,9 0,6 1,1 4,1 14 8 30 16 SSW 3,6 0 0,2
17.01.2021 03:00:00 -5,9 -6,5 -5,9 0,6 1,1 4,1 21 11 33 18 WSW 1,2 0 0,1
17.01.2021 02:00:00 -7,1 -9,0 -7,2 0,6 1,1 4,1 25 13 38 21 WSW 38 0 0,0
17.01.2021 01:00:00 -7,2 -8,7 -7,7 0,6 1,1 4,1 26 14 44 24 WSW 10 0 0,0
17.01.2021 00:00:00 -7,8 -8,9 -8,5 0,6 1,1 4,1 17 9 26 14 SW 29 0 0,0
16.01.2021 23:00:00 -8,4 -9,4 -9,2 0,6 1,1 4,1 14 7 24 13 SSW 14 0 0,0
16.01.2021 22:00:00 -8,0 -8,9 -9,1 0,6 1,1 4,1 16 9 30 16 WSW 12 0 0,0
16.01.2021 21:00:00 -8,1 -8,9 -9,1 0,6 1,1 4,1 18 10 30 16 WSW 8 0 0,0
16.01.2021 20:00:00 -8,6 -9,3 -9,5 0,6 1,1 4,1 15 8 28 15 WSW 0,9 0 0,0
16.01.2021 19:00:00 -7,7 -8,3 -8,7 0,6 1,1 4,1 14 7 22 12 WSW 4,0 0 0,0
16.01.2021 18:00:00 -7,1 -7,8 -8,8 0,6 1,1 4,1 13 7 19 11 W 7 0 0,0
16.01.2021 17:00:00 -6,7 -7,9 -8,8 0,6 1,1 4,2 9 5 18 10 W 11 33 0,0
16.01.2021 16:00:00 -4,8 -7,4 -2,7 0,6 1,1 4,2 9 5 21 11 WSW 21 59 0,0
16.01.2021 15:00:00 -4,9 -7,1 -3,9 0,6 1,1 4,2 8 4 16 9 W 23 37 0,0
16.01.2021 14:00:00 -5,2 -7,8 -2,7 0,6 1,1 4,2 8 4 22 12 W 28 45 0,0
16.01.2021 13:00:00 -5,7 -7,9 -5,1 0,6 1,1 4,2 10 5 21 12 W 27 15 0,0
16.01.2021 12:00:00 -5,5 -6,8 -4,7 0,6 1,1 4,2 12 6 21 12 WSW 6 0 0,0
16.01.2021 11:00:00 -5,9 -6,9 -5,4 0,6 1,1 4,2 10 6 16 9 WSW 1,9 0 0,0
16.01.2021 10:00:00 -6,3 -7,2 -6,0 0,6 1,1 4,2 8 5 18 10 WSW 1,1 0 0,1
16.01.2021 09:00:00 -6,5 -7,1 -6,5 0,6 1,1 4,2 8 4 15 8 WSW 0,8 0 0,0
16.01.2021 08:00:00 -6,7 -7,3 -6,7 0,6 1,1 4,2 6 4 16 8 WNW 0,6 0 0,0
16.01.2021 07:00:00 -6,9 -7,5 -6,9 0,6 1,1 4,2 8 4 16 9 W 2,8 0 0,0
16.01.2021 06:00:00 -7,1 -7,7 -7,0 0,6 1,1 4,2 7 4 14 8 W 0,3 0 0,0
16.01.2021 05:00:00 -7,0 -7,7 -6,9 0,6 1,1 4,2 6 4 16 9 W 0,4 0 0,1
16.01.2021 04:00:00 -6,8 -7,4 -6,8 0,6 1,1 4,2 8 5 16 9 WNW 0,6 0 0,1
16.01.2021 03:00:00 -6,5 -7,1 -6,5 0,6 1,1 4,2 9 5 19 11 NW 0,9 0 0,0
16.01.2021 02:00:00 -6,5 -7,1 -6,5 0,6 1,1 4,2 9 5 19 10 NW 1,0 0 0,0
16.01.2021 01:00:00 -6,5 -7,2 -6,4 0,6 1,1 4,2 10 5 19 10 WNW 4,5 0 0,0
16.01.2021 00:00:00 -6,6 -7,3 -6,6 0,6 1,1 4,2 11 6 18 10 W 6 0 0,1
15.01.2021 23:00:00 -6,5 -7,2 -6,7 0,6 1,1 4,2 11 6 16 9 W 3,8 0 0,0
15.01.2021 22:00:00 -6,4 -7,2 -6,6 0,6 1,1 4,2 10 6 15 8 W 7 0 0,0
15.01.2021 21:00:00 -6,5 -7,2 -6,8 0,6 1,1 4,2 10 5 13 7 W 8 0 0,0
15.01.2021 20:00:00 -6,5 -7,5 -7,0 0,6 1,1 4,2 8 4 10 5 WSW 22 0 0,0
15.01.2021 19:00:00 -6,7 -7,5 -7,2 0,6 1,1 4,2 8 4 15 8 N 17 0 0,0
15.01.2021 18:00:00 -6,4 -6,9 -6,6 0,6 1,1 4,2 8 5 14 8 N 0,1 0 0,0
15.01.2021 17:00:00 -5,9 -6,3 -5,9 0,6 1,1 4,2 10 6 15 8 N 0,2 19 0,0
15.01.2021 16:00:00 -5,5 -6,3 -6,1 0,6 1,1 4,2 6 3 12 6 N 4,1 27 0,0
15.01.2021 15:00:00 -5,7 -7,2 -4,8 0,6 1,1 4,2 5 3 13 7 NE 15 56 0,0
15.01.2021 14:00:00 -5,8 -7,5 -2,2 0,6 1,1 4,2 10 5 26 14 NE 20 60 0,0
15.01.2021 13:00:00 -6,5 -8,1 -4,5 0,6 1,1 4,2 16 8 25 13 NE 15 60 0,0
15.01.2021 12:00:00 -7,1 -8,6 -5,0 0,6 1,1 4,2 14 7 26 14 ENE 21 60 0,0
15.01.2021 11:00:00 -7,3 -8,6 -5,8 0,6 1,1 4,2 15 8 29 16 ENE 9 45 0,0
15.01.2021 10:00:00 -7,5 -8,5 -6,4 0,6 1,1 4,2 19 11 31 17 NE 0,5 52 0,0
15.01.2021 09:00:00 -7,8 -9,0 -7,8 0,6 1,1 4,2 21 11 30 16 ENE 25 42 0,0
15.01.2021 08:00:00 -7,7 -8,5 -8,4 0,6 1,1 4,2 25 13 32 18 ENE 31 0 0,0
15.01.2021 07:00:00 -7,4 -8,2 -2,1 0,6 1,1 4,2 24 13 33 18 NE 11 0 0,0
15.01.2021 06:00:00 -6,8 -7,6 -2,1 0,6 1,1 4,2 21 11 30 16 NE 19 0 0,0
15.01.2021 05:00:00 -6,4 -7,1 -2,1 0,6 1,1 4,2 14 8 29 15 ENE 31 0 0,0
15.01.2021 04:00:00 -6,3 -6,9 -2,0 0,6 1,1 4,2 20 11 30 16 NE 3,5 0 0,0
15.01.2021 03:00:00 -6,3 -6,9 -2,0 0,6 1,1 4,2 18 10 27 15 ENE 15 0 0,0
15.01.2021 02:00:00 -6,2 -6,9 -2,0 0,6 1,1 4,2 21 12 33 18 ENE 19 0 0,0
15.01.2021 01:00:00 -6,1 -6,8 -2,0 0,6 1,1 4,2 24 13 35 19 ENE 22 0 0,0
15.01.2021 00:00:00 -5,9 -6,8 -1,9 0,6 1,1 4,2 18 10 30 16 E 27 0 0,0
14.01.2021 23:00:00 -5,7 -6,3 -1,9 0,6 1,1 4,2 21 11 29 16 ENE 16 0 0,0
14.01.2021 22:00:00 -5,7 -6,6 -1,9 0,6 1,1 4,2 14 8 23 13 E 52 0 0,0
14.01.2021 21:00:00 -5,5 -6,3 -1,9 0,6 1,1 4,2 12 6 25 14 E 41 0 0,0
14.01.2021 20:00:00 -5,2 -5,6 -1,8 0,6 1,1 4,2 11 6 18 10 E 2,7 0 0,0
14.01.2021 19:00:00 -5,5 -6,4 -1,7 0,6 1,1 4,2 14 8 18 10 NE 52 0 0,0
14.01.2021 18:00:00 -5,5 -6,5 -1,5 0,6 1,1 4,3 6 3 10 5 N 59 0 0,0
14.01.2021 17:00:00 -5,4 -6,0 -1,4 0,6 1,1 4,3 8 4 19 10 SW 68 0 0,0
14.01.2021 16:00:00 -5,1 -5,6 -1,3 0,6 1,1 4,3 11 6 20 11 WSW 68 0 0,0
14.01.2021 15:00:00 -5,1 -5,5 -1,2 0,6 1,1 4,3 12 7 21 11 WSW 1,7 0 0,0
14.01.2021 14:00:00 -5,1 -5,6 -1,1 0,6 1,1 4,3 11 6 21 11 W 8 0 0,0
14.01.2021 13:00:00 -5,2 -5,8 -1,1 0,6 1,1 4,3 14 8 34 18 SW 75 0 0,0
14.01.2021 12:00:00 -5,3 -5,8 -1,1 0,6 1,1 4,3 21 11 35 19 SW 2,7 0 0,0
14.01.2021 11:00:00 -5,5 -6,1 -1,1 0,6 1,1 4,3 23 12 45 24 SW 15 0 0,2
14.01.2021 10:00:00 -5,0 -5,4 -1,2 0,6 1,1 4,3 25 14 44 24 SW 0,4 0 0,3
14.01.2021 09:00:00 -4,2 -4,8 -1,2 0,6 1,1 4,3 17 9 34 18 W 3,3 0 2,1
14.01.2021 08:00:00 -2,7 -2,8 -1,3 0,7 1,1 4,3 10 5 37 20 NW 0,3 0 2,7
14.01.2021 07:00:00 -2,9 -3,0 -1,3 0,7 1,1 4,3 24 13 44 24 WSW 0,2 0 1,3
14.01.2021 06:00:00 -2,9 -3,1 -1,2 0,7 1,1 4,3 23 12 56 30 W 0,3 0 0,6
14.01.2021 05:00:00 -2,6 -2,8 -0,9 0,7 1,1 4,3 19 11 59 32 WNW 3,9 0 1,1
14.01.2021 04:00:00 -1,7 -1,8 -0,8 0,7 1,1 4,3 26 14 55 30 NNW 0,2 0 2,1
14.01.2021 03:00:00 -0,8 -0,8 -0,7 0,7 1,1 4,3 22 12 61 33 WNW 0,2 0 2,7
14.01.2021 02:00:00 -0,7 -0,7 -0,6 0,7 1,1 4,3 29 15 57 31 WSW 0,3 0 2,0
14.01.2021 01:00:00 -0,8 -0,8 -0,7 0,7 1,1 4,3 35 19 68 37 WSW 0,2 0 1,9
14.01.2021 00:00:00 -0,7 -0,8 -0,6 0,7 1,1 4,3 40 22 76 41 WSW 0,4 0 0,4
13.01.2021 23:00:00 -0,5 -0,7 -0,5 0,7 1,1 4,3 44 24 74 40 WSW 2,0 0 0,0
13.01.2021 22:00:00 -0,9 -1,0 -0,9 0,7 1,1 4,3 39 21 71 38 WSW 2,2 0 0,0
13.01.2021 21:00:00 -0,3 -2,7 -0,6 0,7 1,1 4,3 38 21 80 43 WSW 15 0 0,0
13.01.2021 20:00:00 -0,3 -2,6 -0,9 0,7 1,1 4,3 44 24 78 42 WSW 51 0 0,0
13.01.2021 19:00:00 -1,2 -2,8 -1,8 0,7 1,1 4,3 40 22 64 35 WSW 19 0 0,0
13.01.2021 18:00:00 -1,7 -3,2 -2,3 0,7 1,1 4,3 33 18 58 31 WSW 41 0 0,0
13.01.2021 17:00:00 -2,1 -3,4 -2,4 0,7 1,1 4,3 29 15 63 34 WSW 38 0 0,0
13.01.2021 16:00:00 -2,4 -3,9 -2,9 0,7 1,1 4,3 26 14 56 30 WSW 38 1 0,0
13.01.2021 15:00:00 -2,1 -3,9 -1,4 0,7 1,1 4,3 21 12 40 21 W 30 7 0,0
13.01.2021 14:00:00 -3,1 -4,2 -2,7 0,7 1,1 4,3 20 11 53 28 W 22 0 0,0
13.01.2021 13:00:00 -3,3 -4,4 -2,9 0,7 1,1 4,3 22 12 44 24 WSW 30 5 0,0
13.01.2021 12:00:00 -3,3 -4,4 -3,1 0,7 1,1 4,3 25 13 44 24 WSW 33 43 0,0
13.01.2021 11:00:00 -3,9 -4,8 -3,9 0,7 1,1 4,3 26 14 44 24 WSW 25 48 0,0
13.01.2021 10:00:00 -3,7 -4,5 -3,9 0,7 1,1 4,3 24 13 40 21 WSW 29 42 0,0
13.01.2021 09:00:00 -4,5 -5,0 -5,4 0,7 1,1 4,3 20 11 32 17 W 19 6 0,0
13.01.2021 08:00:00 -4,6 -5,2 -5,9 0,7 1,1 4,3 18 10 34 19 W 23 0 0,0
13.01.2021 07:00:00 -4,2 -4,7 -5,0 0,7 1,1 4,3 19 10 33 18 W 19 0 0,0
13.01.2021 06:00:00 -3,9 -4,3 -5,0 0,7 1,1 4,3 16 8 27 14 W 9 0 0,0

tt = temperature
td = dewpoint
tt 5cm = temperature 5cm
tt -5cm = temperature -5cm
tt -20cm = temperature -20cm
tt -100cm = temperature -100cm
ff = wind speed
fx = gusts
dd = wind direction
vv = visibility
sd = sunshine duration
rr = precipitation

Next stations